Weather History for Big Rapids, MI

Change the Weather History Date:

Monday, November 26, 2012

  Actual Average Record
Temperature  
Mean Temperature 29 °F -  
Max Temperature 32 °F 40 °F 62 °F (1984)
Min Temperature 26 °F 26 °F 5 °F (1977)
Degree Days  
Heating Degree Days 36    
Moisture  
Dew Point 18 °F    
Average Humidity 60    
Maximum Humidity 70    
Minimum Humidity 54    
Precipitation  
Precipitation 0.00 in - - ()
Sea Level Pressure  
Sea Level Pressure 30.14 in    
Wind  
Wind Speed 8 mph (WNW)    
Max Wind Speed 14 mph    
Max Gust Speed 18 mph    
Visibility 10 miles    
Events Snow    
Averages and records for this station are not official NWS values.
T = Trace of Precipitation, MM = Missing Value Source: NWS Daily Summary

Daily Weather History Graph

Daily Weather History Graph

Search for Another Location

Airport:

Trip Planner

Search our weather history database for the weather conditions in past years. The results will help you decide how hot, cold, wet, or windy it might be!

Date:

Astronomy

Nov. 26, 2012 Rise Set
Actual Time 7:50 AM EST 5:08 PM EST
Civil Twilight 7:18 AM EST 5:39 PM EST
Nautical Twilight 6:43 AM EST 6:15 PM EST
Astronomical Twilight 6:08 AM EST 6:49 PM EST
Moon 4:01 PM EST (11/26) 5:58 AM EST (11/26)
Length of Visible Light 10h 21m
Length of Day
9h 17m
Waxing Gibbous, 97% of the Moon is Illuminated
Nov 26
Waxing Gibbous
Nov 28
Full
Dec 6
Last Quarter
Dec 13
New
Dec 20
First Quarter

Hourly Weather History & Observations

Time (EST) Temp. Windchill Dew Point Humidity Pressure Visibility Wind Dir Wind Speed Gust Speed Precip Events Conditions
12:15 AM 32.2 °F 24.4 °F 23.5 °F 70% 29.96 in 10.0 mi NW 9.2 mph - N/A   Overcast
12:34 AM 32.0 °F 24.2 °F 22.8 °F 69% 29.97 in 10.0 mi NW 9.2 mph - N/A   Overcast
12:54 AM 32.0 °F 24.2 °F 21.7 °F 66% 29.97 in 10.0 mi NW 9.2 mph - N/A   Overcast
1:15 AM 32.0 °F 24.8 °F 20.7 °F 63% 29.98 in 10.0 mi NW 8.1 mph - N/A   Overcast
1:34 AM 32.0 °F 23.6 °F 20.5 °F 63% 29.98 in 10.0 mi WNW 10.4 mph - N/A   Overcast
1:54 AM 31.8 °F 23.3 °F 21.2 °F 65% 29.99 in 10.0 mi WNW 10.4 mph - N/A   Overcast
2:15 AM 31.6 °F 22.6 °F 20.7 °F 64% 29.99 in 10.0 mi WNW 11.5 mph - N/A   Overcast
2:34 AM 31.5 °F 21.4 °F 19.8 °F 62% 30.00 in 10.0 mi WNW 13.8 mph 18.4 mph N/A   Overcast
2:54 AM 31.1 °F 21.9 °F 19.0 °F 61% 30.01 in 10.0 mi WNW 11.5 mph 17.3 mph N/A   Overcast
3:15 AM 31.1 °F 23.7 °F 17.8 °F 58% 30.01 in 10.0 mi NW 8.1 mph - N/A   Overcast
3:34 AM 30.7 °F 23.3 °F 18.9 °F 61% 30.02 in 10.0 mi NW 8.1 mph - N/A   Overcast
3:54 AM 30.9 °F 21.7 °F 17.4 °F 57% 30.02 in 10.0 mi WNW 11.5 mph - N/A   Overcast
4:15 AM 30.7 °F 22.0 °F 17.2 °F 57% 30.03 in 10.0 mi WNW 10.4 mph - N/A   Overcast
4:34 AM 30.2 °F 22.6 °F 18.1 °F 61% 30.03 in 10.0 mi WNW 8.1 mph - N/A   Overcast
4:54 AM 30.6 °F 22.4 °F 16.9 °F 57% 30.04 in 10.0 mi West 9.2 mph - N/A   Overcast
5:14 AM 30.4 °F 22.9 °F 16.9 °F 57% 30.04 in 10.0 mi West 8.1 mph - N/A   Overcast
5:34 AM 30.2 °F 22.6 °F 17.6 °F 60% 30.05 in 10.0 mi WNW 8.1 mph - N/A   Overcast
5:55 AM 30.2 °F 21.9 °F 17.8 °F 60% 30.06 in 10.0 mi WNW 9.2 mph - N/A   Overcast
6:14 AM 30.0 °F 22.4 °F 18.3 °F 62% 30.07 in 10.0 mi WNW 8.1 mph - N/A   Overcast
6:34 AM 29.8 °F 23.9 °F 17.8 °F 61% 30.07 in 10.0 mi WNW 5.8 mph - N/A   Overcast
6:55 AM 29.8 °F 24.9 °F 17.1 °F 59% 30.08 in 10.0 mi West 4.6 mph - N/A   Overcast
7:14 AM 29.8 °F 24.9 °F 17.1 °F 59% 30.08 in 10.0 mi West 4.6 mph - N/A   Overcast
7:34 AM 29.7 °F 23.7 °F 16.9 °F 59% 30.09 in 10.0 mi WNW 5.8 mph - N/A   Overcast
7:55 AM 29.8 °F 23.9 °F 16.3 °F 57% 30.10 in 10.0 mi West 5.8 mph - N/A   Overcast
8:14 AM 29.8 °F 24.9 °F 16.2 °F 57% 30.10 in 10.0 mi WNW 4.6 mph - N/A   Overcast
8:34 AM 29.8 °F 26.3 °F 16.0 °F 56% 30.11 in 10.0 mi West 3.5 mph - N/A   Overcast
8:54 AM 30.2 °F 26.7 °F 16.2 °F 56% 30.11 in 10.0 mi West 3.5 mph - N/A   Overcast
9:14 AM 30.2 °F 25.4 °F 16.5 °F 57% 30.12 in 10.0 mi West 4.6 mph - N/A   Overcast
9:34 AM 30.2 °F 25.4 °F 16.7 °F 57% 30.14 in 10.0 mi West 4.6 mph - N/A   Overcast
9:54 AM 30.7 °F 26.0 °F 16.5 °F 56% 30.14 in 10.0 mi West 4.6 mph - N/A   Overcast
10:15 AM 30.9 °F 25.2 °F 16.5 °F 55% 30.15 in 10.0 mi West 5.8 mph - N/A   Overcast
10:34 AM 31.1 °F 27.7 °F 16.3 °F 54% 30.15 in 10.0 mi West 3.5 mph - N/A   Overcast
10:55 AM 31.6 °F 25.1 °F 16.7 °F 54% 30.16 in 10.0 mi WNW 6.9 mph - N/A   Overcast
11:14 AM 31.1 °F 23.1 °F 18.0 °F 58% 30.17 in 10.0 mi WNW 9.2 mph - N/A   Overcast
11:35 AM 30.9 °F 22.8 °F 17.8 °F 58% 30.16 in 10.0 mi WNW 9.2 mph - N/A   Overcast
11:54 AM 30.9 °F 22.2 °F 18.1 °F 59% 30.16 in 10.0 mi NW 10.4 mph - N/A   Overcast
12:15 PM 31.1 °F 21.9 °F 18.0 °F 58% 30.16 in 10.0 mi WNW 11.5 mph - N/A   Overcast
12:34 PM 31.1 °F 22.4 °F 18.1 °F 59% 30.16 in 10.0 mi WNW 10.4 mph - N/A   Overcast
12:54 PM 30.9 °F 23.5 °F 18.5 °F 60% 30.16 in 10.0 mi NW 8.1 mph - N/A Snow Light Snow
1:15 PM 31.5 °F 22.9 °F 18.3 °F 58% 30.15 in 10.0 mi WNW 10.4 mph - N/A   Overcast
1:34 PM 31.1 °F 22.4 °F 17.8 °F 58% 30.16 in 10.0 mi WNW 10.4 mph - N/A   Overcast
1:54 PM 31.1 °F 21.4 °F 17.8 °F 58% 30.17 in 10.0 mi WNW 12.7 mph - N/A   Overcast
2:15 PM 31.1 °F 21.9 °F 16.5 °F 55% 30.17 in 10.0 mi West 11.5 mph 17.3 mph N/A   Overcast
2:34 PM 31.1 °F 23.1 °F 18.0 °F 58% 30.16 in 10.0 mi WNW 9.2 mph - N/A   Overcast
2:55 PM 31.1 °F 22.4 °F 17.4 °F 57% 30.16 in 10.0 mi WNW 10.4 mph - N/A   Overcast
3:14 PM 30.9 °F 24.3 °F 17.2 °F 57% 30.17 in 10.0 mi West 6.9 mph - N/A   Overcast
3:34 PM 30.9 °F 22.8 °F 17.8 °F 58% 30.17 in 10.0 mi WNW 9.2 mph - N/A   Overcast
3:55 PM 30.6 °F 21.2 °F 18.0 °F 60% 30.17 in 10.0 mi WNW 11.5 mph - N/A   Overcast
4:14 PM 30.2 °F 21.3 °F 18.5 °F 62% 30.17 in 10.0 mi WNW 10.4 mph - N/A   Overcast
4:35 PM 30.2 °F 22.6 °F 19.2 °F 64% 30.18 in 10.0 mi WNW 8.1 mph - N/A   Overcast
4:54 PM 30.0 °F 23.2 °F 19.4 °F 65% 30.19 in 10.0 mi WNW 6.9 mph - N/A   Overcast
5:14 PM 30.0 °F 22.4 °F 19.0 °F 64% 30.19 in 10.0 mi WNW 8.1 mph - N/A   Overcast
5:35 PM 29.8 °F 22.2 °F 18.5 °F 63% 30.20 in 10.0 mi West 8.1 mph - N/A   Overcast
5:54 PM 29.7 °F 22.0 °F 17.6 °F 61% 30.21 in 10.0 mi WNW 8.1 mph - N/A   Overcast
6:15 PM 29.3 °F 21.5 °F 16.2 °F 58% 30.21 in 10.0 mi WNW 8.1 mph - N/A   Overcast
6:34 PM 29.3 °F 24.3 °F 16.2 °F 58% 30.21 in 10.0 mi West 4.6 mph - N/A   Overcast
6:54 PM 29.3 °F 24.3 °F 16.7 °F 59% 30.22 in 10.0 mi West 4.6 mph - N/A   Overcast
7:15 PM 29.3 °F 22.3 °F 17.8 °F 62% 30.22 in 10.0 mi WNW 6.9 mph - N/A   Overcast
7:34 PM 29.3 °F 21.5 °F 18.1 °F 63% 30.23 in 10.0 mi WNW 8.1 mph - N/A   Overcast
7:54 PM 28.9 °F 20.4 °F 18.7 °F 66% 30.23 in 10.0 mi NNW 9.2 mph - N/A   Overcast
8:15 PM 28.6 °F 21.5 °F 18.5 °F 66% 30.24 in 10.0 mi NNW 6.9 mph - N/A   Overcast
8:34 PM 28.4 °F 21.2 °F 17.8 °F 64% 30.25 in 10.0 mi NW 6.9 mph - N/A   Overcast
8:54 PM 28.4 °F 19.7 °F 18.0 °F 65% 30.26 in 10.0 mi NW 9.2 mph - N/A   Overcast
9:15 PM 28.2 °F 18.3 °F 18.1 °F 66% 30.26 in 10.0 mi NNW 11.5 mph - N/A   Overcast
9:34 PM 27.5 °F 17.4 °F 16.7 °F 64% 30.27 in 10.0 mi NNW 11.5 mph 16.1 mph N/A   Overcast
9:54 PM 27.5 °F 20.2 °F 16.0 °F 62% 30.28 in 10.0 mi NNW 6.9 mph - N/A   Overcast
10:15 PM 27.1 °F 21.8 °F 15.1 °F 60% 30.28 in 10.0 mi NNW 4.6 mph - N/A   Overcast
10:34 PM 27.1 °F 23.2 °F 15.3 °F 61% 30.28 in 10.0 mi WNW 3.5 mph - N/A   Overcast
10:54 PM 27.0 °F 21.6 °F 15.8 °F 63% 30.27 in 10.0 mi WNW 4.6 mph - N/A   Overcast
11:15 PM 26.6 °F 21.2 °F 16.3 °F 65% 30.27 in 10.0 mi WNW 4.6 mph - N/A   Overcast
11:34 PM 26.6 °F 21.2 °F 16.5 °F 66% 30.27 in 10.0 mi WNW 4.6 mph - N/A   Overcast
11:54 PM 27.0 °F - 15.3 °F 61% 30.27 in 10.0 mi Calm Calm - N/A   Overcast